Time;durP1;ratioP1;P1;durP2;ratioP2;P2;SDS_P1;SDS_P2;PMS_P1;PMS_P2;Temp;Humidity;BMP_temperature;BMP_pressure;BME280_temperature;BME280_humidity;BME280_pressure;Samples;Min_cycle;Max_cycle;Signal;HPM_P1;HPM_P2
2022/09/30 00:01:14;;;;;;;17.80;12.43;;;7.40;1.00;;;;;;6206888;23;20272;-81
2022/09/30 00:03:41;;;;;;;22.23;13.07;;;7.40;1.00;;;;;;6207404;23;20225;-81
2022/09/30 00:06:10;;;;;;;17.20;13.15;;;7.30;1.00;;;;;;6203931;23;20887;-82
2022/09/30 00:08:38;;;;;;;17.33;12.80;;;7.30;1.00;;;;;;6199609;23;20209;-81
2022/09/30 00:11:12;;;;;;;17.42;12.40;;;7.40;1.00;;;;;;6199561;23;20694;-81
2022/09/30 00:13:40;;;;;;;18.48;12.57;;;7.40;1.00;;;;;;6180074;23;20636;-80
2022/09/30 00:16:08;;;;;;;17.17;12.20;;;7.40;1.00;;;;;;6193814;23;20222;-80
2022/09/30 00:18:36;;;;;;;19.80;13.48;;;7.40;1.00;;;;;;6194866;23;20240;-81
2022/09/30 00:21:05;;;;;;;15.45;12.05;;;7.30;1.00;;;;;;6195507;23;20960;-81
2022/09/30 00:23:32;;;;;;;20.10;13.25;;;7.30;1.00;;;;;;6194686;23;20234;-80
2022/09/30 00:26:00;;;;;;;16.60;11.30;;;7.20;1.00;;;;;;6201758;23;20202;-80
2022/09/30 00:28:29;;;;;;;20.70;12.57;;;7.30;1.00;;;;;;6204149;23;20900;-81
2022/09/30 00:31:00;;;;;;;17.27;12.65;;;7.30;1.00;;;;;;6204425;23;20202;-81
2022/09/30 00:33:30;;;;;;;15.90;11.02;;;7.20;1.00;;;;;;6200842;23;20214;-81
2022/09/30 00:35:57;;;;;;;22.38;11.93;;;7.20;1.00;;;;;;6202896;23;20217;-80
2022/09/30 00:38:24;;;;;;;18.23;13.32;;;7.20;1.00;;;;;;6191147;23;20918;-80
2022/09/30 00:40:51;;;;;;;16.10;11.40;;;7.20;1.00;;;;;;6200322;23;20286;-80
2022/09/30 00:43:21;;;;;;;18.77;12.00;;;7.20;1.00;;;;;;6192359;23;20610;-81
2022/09/30 00:45:54;;;;;;;17.75;11.25;;;7.20;1.00;;;;;;6196655;23;20221;-81
2022/09/30 00:48:45;;;;;;;16.70;10.98;;;7.10;1.00;;;;;;6194854;23;20285;-82
2022/09/30 00:51:12;;;;;;;16.95;11.30;;;7.10;1.00;;;;;;6195622;23;20210;-81
2022/09/30 00:53:45;;;;;;;16.50;11.60;;;7.10;1.00;;;;;;6202535;23;20285;-82
2022/09/30 00:56:17;;;;;;;17.05;12.25;;;7.10;1.00;;;;;;6197795;23;20217;-81
2022/09/30 00:58:50;;;;;;;19.35;11.80;;;7.00;1.00;;;;;;6184446;23;20214;-82
2022/09/30 01:01:19;;;;;;;20.00;13.63;;;7.00;1.00;;;;;;6194214;23;20233;-81
2022/09/30 01:03:53;;;;;;;15.68;10.95;;;7.00;1.00;;;;;;6195566;23;20229;-82
2022/09/30 01:06:22;;;;;;;17.05;11.90;;;7.00;1.00;;;;;;6195573;23;20214;-81
2022/09/30 01:08:50;;;;;;;16.35;11.60;;;7.00;1.00;;;;;;6198296;23;20248;-81
2022/09/30 01:11:17;;;;;;;17.55;11.40;;;7.00;1.00;;;;;;6197206;23;20210;-81
2022/09/30 01:13:47;;;;;;;15.77;12.20;;;7.10;1.00;;;;;;6200365;23;20224;-81
2022/09/30 01:16:42;;;;;;;17.25;11.15;;;7.00;1.00;;;;;;6201189;23;20213;-81
2022/09/30 01:19:42;;;;;;;17.33;13.18;;;7.00;1.00;;;;;;6185671;23;20202;-81
2022/09/30 01:22:37;;;;;;;17.52;11.60;;;7.00;1.00;;;;;;6199235;23;21004;-81
2022/09/30 01:25:25;;;;;;;16.65;11.10;;;7.00;1.00;;;;;;6199814;23;20198;-80
2022/09/30 01:28:18;;;;;;;16.90;11.35;;;6.90;1.00;;;;;;6196978;23;20293;-81
2022/09/30 01:31:17;;;;;;;15.88;10.85;;;6.80;1.00;;;;;;6196150;23;20553;-80
2022/09/30 01:33:53;;;;;;;16.60;10.52;;;6.80;1.00;;;;;;6195699;23;20273;-80
2022/09/30 01:36:35;;;;;;;15.77;10.85;;;6.90;1.00;;;;;;6194570;23;20224;-81
2022/09/30 01:39:17;;;;;;;18.20;12.15;;;6.80;1.00;;;;;;6195077;23;20225;-81
2022/09/30 01:41:53;;;;;;;16.75;11.25;;;6.80;1.00;;;;;;6192280;23;20221;-82
2022/09/30 01:44:31;;;;;;;16.08;11.15;;;6.80;1.00;;;;;;6196454;23;20245;-81
2022/09/30 01:47:04;;;;;;;16.02;10.90;;;6.80;1.00;;;;;;6196104;23;20213;-81
2022/09/30 01:49:38;;;;;;;19.15;11.13;;;6.80;1.00;;;;;;6195626;23;20221;-80
2022/09/30 01:52:17;;;;;;;18.15;11.73;;;6.80;1.00;;;;;;6199371;23;20209;-82
2022/09/30 01:54:53;;;;;;;16.38;11.13;;;6.80;1.00;;;;;;6197701;23;20638;-80
2022/09/30 01:57:26;;;;;;;16.40;11.05;;;6.90;1.00;;;;;;6197026;23;20209;-80
2022/09/30 01:59:59;;;;;;;18.02;11.30;;;6.90;1.00;;;;;;6194310;23;20225;-80
2022/09/30 02:02:30;;;;;;;16.77;11.13;;;6.90;1.00;;;;;;6191990;23;20221;-81
2022/09/30 02:05:00;;;;;;;18.90;11.52;;;6.90;1.00;;;;;;6194959;23;20266;-81
2022/09/30 02:07:34;;;;;;;20.65;12.63;;;6.80;1.00;;;;;;6191559;23;20262;-81
2022/09/30 02:10:06;;;;;;;17.38;11.10;;;6.80;1.00;;;;;;6193631;23;20222;-81
2022/09/30 02:12:38;;;;;;;16.25;10.98;;;6.80;1.00;;;;;;6191010;23;20233;-80
2022/09/30 02:15:12;;;;;;;16.58;11.15;;;6.70;1.00;;;;;;6192750;23;20249;-81
2022/09/30 02:17:47;;;;;;;21.45;12.68;;;6.60;1.00;;;;;;6193370;23;20221;-80
2022/09/30 02:20:19;;;;;;;15.95;11.82;;;6.60;1.00;;;;;;6190105;23;20276;-81
2022/09/30 02:22:51;;;;;;;17.35;11.80;;;6.50;1.00;;;;;;6192971;23;20213;-81
2022/09/30 02:25:26;;;;;;;16.30;11.05;;;6.60;1.00;;;;;;6190535;23;20343;-81
2022/09/30 02:27:57;;;;;;;16.35;11.25;;;6.60;1.00;;;;;;6194454;23;20299;-81
2022/09/30 02:30:26;;;;;;;18.15;12.50;;;6.60;1.00;;;;;;6188799;23;20213;-81
2022/09/30 02:33:01;;;;;;;18.55;13.25;;;6.60;1.00;;;;;;6190873;23;20613;-81
2022/09/30 02:35:33;;;;;;;18.50;12.15;;;6.60;1.00;;;;;;6191937;23;20480;-81
2022/09/30 02:38:07;;;;;;;18.08;11.90;;;6.60;1.00;;;;;;6192737;23;20244;-80
2022/09/30 02:40:39;;;;;;;17.90;11.60;;;6.60;1.00;;;;;;6191967;23;20271;-81
2022/09/30 02:43:08;;;;;;;16.60;11.70;;;6.50;1.00;;;;;;6193087;23;20216;-81
2022/09/30 02:45:43;;;;;;;18.90;12.32;;;6.50;1.00;;;;;;6189623;23;20218;-81
2022/09/30 02:48:26;;;;;;;19.83;12.55;;;6.50;1.00;;;;;;6190055;23;20304;-82
2022/09/30 02:51:02;;;;;;;17.20;12.65;;;6.50;1.00;;;;;;6193968;23;20218;-82
2022/09/30 02:53:35;;;;;;;19.45;12.52;;;6.50;1.00;;;;;;6190129;23;20611;-80
2022/09/30 02:56:14;;;;;;;16.42;11.85;;;6.40;1.00;;;;;;6192312;23;20240;-80
2022/09/30 02:58:42;;;;;;;22.08;12.82;;;6.40;1.00;;;;;;6190235;23;20209;-82
2022/09/30 03:01:12;;;;;;;22.27;13.25;;;6.40;1.00;;;;;;6187217;23;20789;-81
2022/09/30 03:03:44;;;;;;;17.25;11.80;;;6.40;1.00;;;;;;6203016;23;20221;-81
2022/09/30 03:06:12;;;;;;;22.00;12.95;;;6.50;1.00;;;;;;6201726;23;20318;-80
2022/09/30 03:08:38;;;;;;;23.20;13.05;;;6.40;1.00;;;;;;6199438;23;20205;-80
2022/09/30 03:11:06;;;;;;;20.08;12.30;;;6.40;1.00;;;;;;6199894;23;20210;-81
2022/09/30 03:13:59;;;;;;;18.52;11.65;;;6.30;1.00;;;;;;6197341;23;20321;-81
2022/09/30 03:16:40;;;;;;;18.60;12.63;;;6.20;1.00;;;;;;6196172;23;20209;-81
2022/09/30 03:19:23;;;;;;;19.33;12.27;;;6.20;1.00;;;;;;6195557;23;20292;-81
2022/09/30 03:22:09;;;;;;;17.50;12.10;;;6.20;1.00;;;;;;6195712;23;20288;-81
2022/09/30 03:24:58;;;;;;;18.92;13.07;;;6.20;1.00;;;;;;6197081;23;20220;-81
2022/09/30 03:27:34;;;;;;;23.17;15.32;;;6.20;1.00;;;;;;6197486;23;20297;-82
2022/09/30 03:30:07;;;;;;;20.20;13.45;;;6.20;1.00;;;;;;6197372;23;20214;-81
2022/09/30 03:32:51;;;;;;;19.83;13.88;;;6.10;1.00;;;;;;6194944;23;20269;-83
2022/09/30 03:35:30;;;;;;;21.75;14.25;;;6.00;1.00;;;;;;6197183;23;20221;-81
2022/09/30 03:38:03;;;;;;;18.80;13.38;;;6.00;1.00;;;;;;6201880;23;20217;-81
2022/09/30 03:40:40;;;;;;;20.48;12.93;;;6.00;1.00;;;;;;6171973;23;20206;-81
2022/09/30 03:43:17;;;;;;;19.92;13.55;;;6.00;1.00;;;;;;6196340;23;20228;-81
2022/09/30 03:45:50;;;;;;;21.70;13.98;;;6.00;1.00;;;;;;6196028;23;20293;-81
2022/09/30 03:48:19;;;;;;;18.55;13.75;;;6.00;1.00;;;;;;6194949;23;20244;-82
2022/09/30 03:50:48;;;;;;;21.10;13.77;;;6.00;1.00;;;;;;6200200;23;20233;-80
2022/09/30 03:53:16;;;;;;;23.42;15.15;;;6.00;1.00;;;;;;6198452;23;20224;-81
2022/09/30 03:55:50;;;;;;;19.45;12.68;;;6.10;1.00;;;;;;6197764;23;20241;-81
2022/09/30 03:58:21;;;;;;;21.00;14.65;;;6.10;1.00;;;;;;6195438;23;20216;-81
2022/09/30 04:00:49;;;;;;;23.00;14.27;;;6.20;1.00;;;;;;6183141;23;20229;-80
2022/09/30 04:03:16;;;;;;;21.23;13.75;;;6.20;1.00;;;;;;6190726;23;20932;-80
2022/09/30 04:05:43;;;;;;;20.42;13.43;;;6.20;1.00;;;;;;6191937;23;21109;-80
2022/09/30 04:08:12;;;;;;;23.20;14.27;;;6.20;1.00;;;;;;6192392;23;20968;-80
2022/09/30 04:10:40;;;;;;;20.67;13.52;;;6.10;1.00;;;;;;6191998;23;20770;-81
2022/09/30 04:13:07;;;;;;;21.45;13.82;;;6.10;1.00;;;;;;6192689;23;20213;-81
2022/09/30 04:15:35;;;;;;;20.38;15.02;;;6.10;1.00;;;;;;6192705;23;20218;-80
2022/09/30 04:18:02;;;;;;;23.73;14.45;;;6.10;1.00;;;;;;6195672;23;20210;-81
2022/09/30 04:20:30;;;;;;;22.05;14.25;;;6.10;1.00;;;;;;6193801;23;20217;-80
2022/09/30 04:22:58;;;;;;;20.45;13.68;;;6.10;1.00;;;;;;6201226;23;20323;-80
2022/09/30 04:25:27;;;;;;;22.90;14.60;;;6.00;1.00;;;;;;6198207;23;20260;-81
2022/09/30 04:27:54;;;;;;;20.17;13.13;;;6.00;1.00;;;;;;6197632;23;21089;-80
2022/09/30 04:30:22;;;;;;;19.70;13.35;;;6.00;1.00;;;;;;6198086;23;21009;-81
2022/09/30 04:32:49;;;;;;;21.75;15.07;;;6.00;1.00;;;;;;6198091;23;20218;-80
2022/09/30 04:35:16;;;;;;;20.17;13.55;;;6.00;1.00;;;;;;6166176;23;20539;-80
2022/09/30 04:37:43;;;;;;;19.08;13.20;;;6.00;1.00;;;;;;6191850;23;20301;-79
2022/09/30 04:40:11;;;;;;;20.13;13.35;;;6.00;1.00;;;;;;6194406;23;20218;-80
2022/09/30 04:42:41;;;;;;;18.98;14.00;;;6.00;1.00;;;;;;6195041;23;20222;-79
2022/09/30 04:45:13;;;;;;;19.52;13.07;;;6.00;1.00;;;;;;6202984;23;20226;-80
2022/09/30 04:47:44;;;;;;;19.30;13.20;;;5.90;1.00;;;;;;6199799;23;20218;-83
2022/09/30 04:50:12;;;;;;;19.83;12.52;;;5.90;1.00;;;;;;6198467;23;20214;-83
2022/09/30 04:52:42;;;;;;;45.20;24.42;;;5.90;1.00;;;;;;6197918;23;20217;-79
2022/09/30 04:55:09;;;;;;;24.55;14.00;;;5.90;1.00;;;;;;6193769;23;20209;-79
2022/09/30 04:57:38;;;;;;;27.70;17.30;;;5.90;1.00;;;;;;6193750;23;20213;-79
2022/09/30 05:00:08;;;;;;;20.38;13.80;;;5.90;1.00;;;;;;6192875;23;20210;-80
2022/09/30 05:02:35;;;;;;;20.50;13.20;;;6.00;1.00;;;;;;6191822;23;20226;-80
2022/09/30 05:05:03;;;;;;;25.02;15.98;;;6.00;1.00;;;;;;6196284;23;20332;-81
2022/09/30 05:07:31;;;;;;;21.15;14.13;;;6.00;1.00;;;;;;6193355;23;20214;-83
2022/09/30 05:09:57;;;;;;;22.00;14.00;;;5.90;1.00;;;;;;6196071;23;20212;-81
2022/09/30 05:12:25;;;;;;;20.92;12.77;;;5.90;1.00;;;;;;6191495;23;20228;-79
2022/09/30 05:14:51;;;;;;;21.67;14.10;;;5.90;1.00;;;;;;6193676;23;20245;-81
2022/09/30 05:17:19;;;;;;;19.83;13.50;;;5.90;1.00;;;;;;6191884;23;20217;-80
2022/09/30 05:19:46;;;;;;;19.23;13.73;;;5.90;1.00;;;;;;6195215;23;20220;-80
2022/09/30 05:22:14;;;;;;;21.75;13.50;;;6.00;1.00;;;;;;6192419;23;21313;-79
2022/09/30 05:24:45;;;;;;;21.60;13.85;;;6.00;1.00;;;;;;6173591;23;20934;-80
2022/09/30 05:27:12;;;;;;;22.80;14.00;;;6.00;1.00;;;;;;6191640;23;20214;-79
2022/09/30 05:29:42;;;;;;;20.55;13.80;;;6.00;1.00;;;;;;6194272;23;20221;-79
2022/09/30 05:32:09;;;;;;;22.88;14.40;;;6.10;1.00;;;;;;6195493;23;20214;-80
2022/09/30 05:34:38;;;;;;;19.33;13.68;;;6.10;1.00;;;;;;6196452;23;20340;-80
2022/09/30 05:37:05;;;;;;;21.70;15.32;;;6.10;1.00;;;;;;6196739;23;20217;-81
2022/09/30 05:39:34;;;;;;;22.95;16.35;;;6.10;1.00;;;;;;6193279;23;20214;-81
2022/09/30 05:42:01;;;;;;;20.77;15.18;;;6.10;1.00;;;;;;6195228;23;20240;-80
2022/09/30 05:44:28;;;;;;;24.33;13.23;;;6.20;1.00;;;;;;6194371;23;20217;-80
2022/09/30 05:46:58;;;;;;;23.92;14.10;;;6.20;1.00;;;;;;6196962;23;20280;-80
2022/09/30 05:49:25;;;;;;;25.58;15.05;;;6.20;1.00;;;;;;6194851;23;20945;-81
2022/09/30 05:51:54;;;;;;;23.65;13.75;;;6.20;1.00;;;;;;6194897;23;20218;-80
2022/09/30 05:54:21;;;;;;;23.40;15.30;;;6.20;1.00;;;;;;6195564;23;20219;-81
2022/09/30 05:56:48;;;;;;;25.50;16.80;;;6.30;1.00;;;;;;6194725;23;20210;-80
2022/09/30 05:59:16;;;;;;;19.25;13.38;;;6.30;1.00;;;;;;6169227;23;20222;-80
2022/09/30 06:01:44;;;;;;;19.33;13.30;;;6.30;1.00;;;;;;6196979;23;20733;-80
2022/09/30 06:04:11;;;;;;;22.80;14.45;;;6.30;1.00;;;;;;6196982;23;20220;-81
2022/09/30 06:06:37;;;;;;;29.42;26.45;;;6.40;1.00;;;;;;6192392;23;20969;-79
2022/09/30 06:09:06;;;;;;;21.58;14.02;;;6.40;1.00;;;;;;6192497;23;20218;-79
2022/09/30 06:11:33;;;;;;;23.77;14.80;;;6.50;1.00;;;;;;6193869;23;20222;-81
2022/09/30 06:14:02;;;;;;;20.48;14.30;;;6.50;1.00;;;;;;6195484;23;20218;-79
2022/09/30 06:16:30;;;;;;;24.00;13.52;;;6.50;1.00;;;;;;6196598;23;21000;-79
2022/09/30 06:18:58;;;;;;;23.17;14.43;;;6.60;1.00;;;;;;6195200;23;20280;-81
2022/09/30 06:21:25;;;;;;;21.02;13.18;;;6.70;1.00;;;;;;6194130;23;20908;-80
2022/09/30 06:23:53;;;;;;;22.20;13.50;;;6.70;1.00;;;;;;6197997;23;21002;-80
2022/09/30 06:26:23;;;;;;;20.23;14.40;;;6.80;1.00;;;;;;6195240;23;20220;-80
2022/09/30 06:28:50;;;;;;;21.23;13.02;;;6.90;1.00;;;;;;6198822;23;20212;-80
2022/09/30 06:31:17;;;;;;;20.65;14.48;;;7.00;1.00;;;;;;6170714;23;20238;-78
2022/09/30 06:33:47;;;;;;;21.23;13.15;;;7.10;1.00;;;;;;6197628;23;20210;-80
2022/09/30 06:36:17;;;;;;;21.75;14.43;;;7.20;1.00;;;;;;6193012;23;20213;-79
2022/09/30 06:38:44;;;;;;;18.90;13.10;;;7.30;1.00;;;;;;6167935;23;20217;-78
2022/09/30 06:41:12;;;;;;;20.52;13.45;;;7.50;1.00;;;;;;6193541;23;20218;-78
2022/09/30 06:43:45;;;;;;;22.65;13.95;;;7.60;1.00;;;;;;6131766;23;20248;-79
2022/09/30 06:46:13;;;;;;;20.48;13.50;;;7.70;1.00;;;;;;6194588;23;20922;-78
2022/09/30 06:48:41;;;;;;;19.45;13.68;;;7.70;1.00;;;;;;6191801;23;20289;-78
2022/09/30 06:51:09;;;;;;;22.65;14.98;;;7.80;1.00;;;;;;6195022;23;20205;-80
2022/09/30 06:53:38;;;;;;;20.65;14.32;;;7.90;1.00;;;;;;6193734;23;20210;-79
2022/09/30 06:56:08;;;;;;;19.52;14.55;;;8.00;1.00;;;;;;6194023;23;20238;-78
2022/09/30 06:58:35;;;;;;;22.92;15.18;;;8.10;1.00;;;;;;6191459;23;20278;-79
2022/09/30 07:01:05;;;;;;;22.85;15.52;;;8.20;1.00;;;;;;6190395;23;20470;-79
2022/09/30 07:03:34;;;;;;;21.08;15.20;;;8.30;1.00;;;;;;6187429;23;20301;-79
2022/09/30 07:06:04;;;;;;;21.17;15.07;;;8.40;1.00;;;;;;6190463;23;20241;-81
2022/09/30 07:08:39;;;;;;;24.15;16.20;;;8.50;1.00;;;;;;6191760;23;20681;-81
2022/09/30 07:11:10;;;;;;;21.27;14.80;;;8.60;1.00;;;;;;6195501;23;20346;-81
2022/09/30 07:13:38;;;;;;;21.23;14.32;;;8.80;1.00;;;;;;6190929;23;20213;-83
2022/09/30 07:16:07;;;;;;;21.67;15.53;;;8.90;1.00;;;;;;6167155;23;20266;-82
2022/09/30 07:19:00;;;;;;;21.90;14.50;;;8.90;1.00;;;;;;6193734;23;20461;-81
2022/09/30 07:21:29;;;;;;;22.77;15.40;;;9.10;1.00;;;;;;6192120;23;20696;-80
2022/09/30 07:23:57;;;;;;;24.30;15.50;;;9.20;1.00;;;;;;6179574;23;20433;-80
2022/09/30 07:26:27;;;;;;;21.20;14.90;;;9.20;1.00;;;;;;6191174;23;20401;-79
2022/09/30 07:28:54;;;;;;;20.73;15.13;;;9.30;1.00;;;;;;6195653;23;20438;-81
2022/09/30 07:31:24;;;;;;;25.80;15.90;;;9.40;1.00;;;;;;6195516;23;20218;-81
2022/09/30 07:33:54;;;;;;;21.35;14.68;;;9.50;1.00;;;;;;6195208;23;20457;-81
2022/09/30 07:36:26;;;;;;;21.87;15.97;;;9.50;1.00;;;;;;6193201;23;20209;-79
2022/09/30 07:38:56;;;;;;;25.13;16.10;;;9.60;1.00;;;;;;6196106;23;20906;-81
2022/09/30 07:41:27;;;;;;;21.20;15.90;;;9.70;1.00;;;;;;6193252;23;20465;-81
2022/09/30 07:43:57;;;;;;;23.57;15.83;;;9.80;1.00;;;;;;6194912;23;20414;-82
2022/09/30 07:46:29;;;;;;;23.80;16.30;;;10.00;1.00;;;;;;6194111;23;20446;-82
2022/09/30 07:48:59;;;;;;;23.23;17.77;;;10.00;1.00;;;;;;6194684;23;20422;-79
2022/09/30 07:51:31;;;;;;;23.10;16.75;;;10.10;1.00;;;;;;6194696;23;21234;-80
2022/09/30 07:54:01;;;;;;;23.00;16.80;;;10.10;1.00;;;;;;6192623;23;20226;-82
2022/09/30 07:56:32;;;;;;;21.80;17.77;;;10.20;1.00;;;;;;6192767;23;21193;-81
2022/09/30 07:59:01;;;;;;;27.07;17.67;;;10.30;1.00;;;;;;6191308;23;20418;-77
2022/09/30 08:01:34;;;;;;;26.07;17.83;;;10.50;1.00;;;;;;6189410;23;21135;-77
2022/09/30 08:04:06;;;;;;;26.90;16.93;;;10.70;1.00;;;;;;6190591;23;20430;-77
2022/09/30 08:06:37;;;;;;;22.47;17.90;;;10.80;1.00;;;;;;6189488;23;20465;-79
2022/09/30 08:09:08;;;;;;;23.10;15.40;;;11.00;1.00;;;;;;6191663;23;20406;-78
2022/09/30 08:11:40;;;;;;;21.17;15.57;;;11.20;1.00;;;;;;6189418;23;21190;-79
2022/09/30 08:14:07;;;;;;;21.13;15.00;;;11.30;1.00;;;;;;6187320;23;20434;-77
2022/09/30 08:16:38;;;;;;;20.80;15.50;;;11.40;1.00;;;;;;6190351;23;20897;-77
2022/09/30 08:19:05;;;;;;;19.33;14.83;;;11.40;1.00;;;;;;6191984;23;20413;-81
2022/09/30 08:21:35;;;;;;;23.67;14.77;;;11.50;1.00;;;;;;6190151;23;20418;-77
2022/09/30 08:24:04;;;;;;;19.23;14.70;;;11.70;1.00;;;;;;6191271;23;20425;-76
2022/09/30 08:26:31;;;;;;;18.37;14.27;;;11.80;1.00;;;;;;6192345;23;20422;-76
2022/09/30 08:29:00;;;;;;;17.30;13.37;;;11.80;1.00;;;;;;6179304;23;20493;-79
2022/09/30 08:31:28;;;;;;;21.23;14.57;;;12.00;1.00;;;;;;6188174;23;20410;-77
2022/09/30 08:33:56;;;;;;;22.27;14.83;;;12.20;1.00;;;;;;6191652;23;20520;-79
2022/09/30 08:36:25;;;;;;;20.33;14.90;;;12.40;1.00;;;;;;6189111;23;21184;-78
2022/09/30 08:38:53;;;;;;;17.90;12.30;;;12.50;1.00;;;;;;6189962;23;20410;-79
2022/09/30 08:41:46;;;;;;;20.87;13.13;;;12.80;1.00;;;;;;6191310;23;20504;-81
2022/09/30 08:44:26;;;;;;;20.37;14.03;;;13.00;1.00;;;;;;6192487;23;20406;-81
2022/09/30 08:46:59;;;;;;;19.70;12.90;;;13.40;1.00;;;;;;6194185;23;20937;-79
2022/09/30 08:49:46;;;;;;;18.07;12.50;;;13.90;1.00;;;;;;6192677;23;20567;-79
2022/09/30 08:52:18;;;;;;;19.20;13.40;;;14.60;1.00;;;;;;6190489;23;20404;-82
2022/09/30 08:54:51;;;;;;;27.27;16.40;;;15.60;1.00;;;;;;6194692;23;20390;-79
2022/09/30 08:57:20;;;;;;;15.50;11.20;;;17.00;1.00;;;;;;6187053;23;20418;-80
2022/09/30 08:59:49;;;;;;;19.73;13.40;;;18.30;1.00;;;;;;6189362;23;20493;-78
2022/09/30 09:02:22;;;;;;;16.90;12.40;;;19.30;1.00;;;;;;6190691;23;20425;-79
2022/09/30 09:04:52;;;;;;;16.37;11.73;;;20.60;1.00;;;;;;6192074;23;20862;-79
2022/09/30 09:07:37;;;;;;;17.17;10.50;;;21.50;1.00;;;;;;6188484;23;20410;-79
2022/09/30 09:10:19;;;;;;;16.20;14.37;;;22.60;1.00;;;;;;6192227;23;20477;-79
2022/09/30 09:12:58;;;;;;;13.80;10.70;;;23.80;1.00;;;;;;6189380;23;20440;-77
2022/09/30 09:15:48;;;;;;;16.93;10.23;;;24.60;1.00;;;;;;6191196;23;21105;-77
2022/09/30 09:18:36;;;;;;;14.07;10.83;;;25.50;1.00;;;;;;6188692;23;20425;-77
2022/09/30 09:21:20;;;;;;;14.60;11.43;;;25.90;1.00;;;;;;6188891;23;20430;-78
2022/09/30 09:23:47;;;;;;;11.17;9.23;;;26.40;1.00;;;;;;6190635;23;20446;-79
2022/09/30 09:26:18;;;;;;;11.80;9.93;;;26.90;1.00;;;;;;6189318;23;20965;-79
2022/09/30 09:28:57;;;;;;;12.60;7.97;;;26.40;1.00;;;;;;6192043;23;20425;-81
2022/09/30 09:31:25;;;;;;;9.97;8.97;;;26.30;1.00;;;;;;6189661;23;20420;-80
2022/09/30 09:33:52;;;;;;;8.77;7.87;;;26.50;1.00;;;;;;6193748;23;20431;-80
2022/09/30 09:36:44;;;;;;;10.60;8.80;;;26.60;1.00;;;;;;6188166;23;20448;-81
2022/09/30 09:39:46;;;;;;;11.70;9.83;;;26.70;1.00;;;;;;6192113;23;20421;-81
2022/09/30 09:42:28;;;;;;;10.00;9.00;;;26.30;1.00;;;;;;6172635;23;20427;-80
2022/09/30 09:45:02;;;;;;;9.50;7.60;;;26.10;1.00;;;;;;6194146;23;20428;-80
2022/09/30 09:47:30;;;;;;;8.73;7.83;;;25.40;1.00;;;;;;6177930;23;20436;-81
2022/09/30 09:49:59;;;;;;;10.07;7.97;;;25.20;1.00;;;;;;6190901;23;20425;-81
2022/09/30 09:52:59;;;;;;;9.47;7.80;;;25.00;1.00;;;;;;6194839;23;20417;-80
2022/09/30 09:55:28;;;;;;;9.23;7.90;;;24.80;1.00;;;;;;6193469;23;20434;-80
2022/09/30 09:58:09;;;;;;;11.43;7.80;;;24.50;1.00;;;;;;6193280;23;20441;-79
2022/09/30 10:03:23;;;;;;;10.13;8.67;;;23.50;1.00;;;;;;6191124;23;20438;-81
2022/09/30 10:06:01;;;;;;;8.90;7.50;;;23.80;1.00;;;;;;6191202;23;20810;-80
2022/09/30 10:08:37;;;;;;;9.83;7.93;;;24.70;1.00;;;;;;6193699;23;20429;-79
2022/09/30 10:11:08;;;;;;;9.57;8.30;;;25.20;1.00;;;;;;6191181;23;21021;-79
2022/09/30 10:13:43;;;;;;;10.43;9.43;;;25.30;1.00;;;;;;6194650;23;20413;-79
2022/09/30 10:16:28;;;;;;;8.87;7.90;;;26.20;1.00;;;;;;6193996;23;20535;-80
2022/09/30 10:18:57;;;;;;;9.37;8.20;;;26.60;1.00;;;;;;6194466;23;20485;-81
2022/09/30 10:21:26;;;;;;;9.07;8.17;;;27.80;1.00;;;;;;6195297;23;20426;-80
2022/09/30 10:23:54;;;;;;;10.67;8.67;;;28.90;1.00;;;;;;6196500;23;20422;-79
2022/09/30 10:26:24;;;;;;;9.73;8.00;;;30.10;1.00;;;;;;6193682;23;20509;-79
2022/09/30 10:28:54;;;;;;;8.27;7.47;;;30.50;1.00;;;;;;6194949;23;20434;-79
2022/09/30 10:31:25;;;;;;;10.70;8.10;;;30.40;1.00;;;;;;6192161;23;20453;-79
2022/09/30 10:34:03;;;;;;;10.63;8.43;;;28.50;1.00;;;;;;6195751;23;20774;-80
2022/09/30 10:36:33;;;;;;;8.37;7.00;;;28.10;1.00;;;;;;6190935;23;20449;-80
2022/09/30 10:39:05;;;;;;;7.03;6.13;;;29.00;1.00;;;;;;6176258;23;20477;-81
2022/09/30 10:41:35;;;;;;;7.50;6.80;;;30.00;1.00;;;;;;6193707;23;20418;-80
2022/09/30 10:44:06;;;;;;;10.37;9.00;;;30.10;1.00;;;;;;6194508;23;20414;-79
2022/09/30 10:46:35;;;;;;;6.60;5.90;;;29.70;1.00;;;;;;6193571;23;20454;-80
2022/09/30 10:49:12;;;;;;;8.00;7.20;;;29.50;1.00;;;;;;6191619;23;20512;-81
2022/09/30 10:51:40;;;;;;;7.03;6.33;;;30.00;1.00;;;;;;6195732;23;20453;-80
2022/09/30 10:54:36;;;;;;;6.20;5.60;;;30.40;1.00;;;;;;6193222;23;20418;-80
2022/09/30 10:57:06;;;;;;;8.60;6.43;;;31.20;1.00;;;;;;6192787;23;20441;-80
2022/09/30 10:59:37;;;;;;;7.83;6.20;;;32.40;1.00;;;;;;6168386;23;20430;-81
2022/09/30 11:02:51;;;;;;;6.63;5.93;;;33.10;1.00;;;;;;6200386;23;20501;-81
2022/09/30 11:05:23;;;;;;;9.83;6.00;;;32.60;1.00;;;;;;6200039;23;21032;-80
2022/09/30 11:07:59;;;;;;;7.23;6.53;;;32.80;1.00;;;;;;6201125;23;20441;-80
2022/09/30 11:10:44;;;;;;;6.70;6.00;;;33.30;1.00;;;;;;6196846;23;20448;-83
2022/09/30 11:13:18;;;;;;;7.80;7.00;;;33.40;1.00;;;;;;6195124;23;20421;-82
2022/09/30 11:16:02;;;;;;;6.50;5.80;;;33.20;1.00;;;;;;6195424;23;20476;-81
2022/09/30 11:18:39;;;;;;;9.30;6.20;;;32.50;1.00;;;;;;6196769;23;20433;-82
2022/09/30 11:21:12;;;;;;;8.10;6.83;;;30.70;1.00;;;;;;6197480;23;20532;-80
2022/09/30 11:23:48;;;;;;;6.80;6.07;;;31.30;1.00;;;;;;6196705;23;20410;-79
2022/09/30 11:26:27;;;;;;;6.47;5.83;;;32.30;1.00;;;;;;6192443;23;20452;-81
2022/09/30 11:29:11;;;;;;;6.87;6.27;;;33.10;1.00;;;;;;6198067;23;20432;-81
2022/09/30 11:31:47;;;;;;;6.90;6.00;;;33.90;1.00;;;;;;6184212;23;20505;-84
2022/09/30 11:34:28;;;;;;;5.33;4.83;;;32.20;1.00;;;;;;6147869;23;20423;-83
2022/09/30 11:37:03;;;;;;;6.80;5.00;;;32.60;1.00;;;;;;6140298;23;20423;-85
2022/09/30 11:39:55;;;;;;;8.17;6.30;;;33.00;1.00;;;;;;6139426;23;20450;-83
2022/09/30 11:42:33;;;;;;;4.93;4.43;;;33.50;1.00;;;;;;6139611;23;20649;-84
2022/09/30 11:45:11;;;;;;;6.67;5.30;;;33.40;1.00;;;;;;6140938;23;20428;-83
2022/09/30 11:47:53;;;;;;;5.53;4.40;;;31.80;1.00;;;;;;6139398;23;20443;-83
2022/09/30 11:50:32;;;;;;;6.43;5.73;;;32.40;1.00;;;;;;6138067;23;20439;-83
2022/09/30 11:53:11;;;;;;;5.97;4.93;;;30.30;1.00;;;;;;6137283;23;20407;-84
2022/09/30 11:56:07;;;;;;;6.53;4.30;;;29.90;1.00;;;;;;6144254;23;20384;-84
2022/09/30 11:58:45;;;;;;;5.10;3.90;;;30.20;1.00;;;;;;6137395;23;20878;-84
2022/09/30 12:01:22;;;;;;;4.70;3.60;;;29.50;1.00;;;;;;6139069;23;20396;-85
2022/09/30 12:03:58;;;;;;;5.97;4.77;;;29.70;1.00;;;;;;6141016;23;20885;-86
2022/09/30 12:06:32;;;;;;;4.80;4.00;;;30.70;1.00;;;;;;6134776;23;20526;-81
2022/09/30 12:09:08;;;;;;;4.10;3.40;;;31.80;1.00;;;;;;6133417;23;20499;-79
2022/09/30 12:11:41;;;;;;;7.17;4.20;;;33.00;1.00;;;;;;6134224;23;21157;-82
2022/09/30 12:14:24;;;;;;;4.83;4.30;;;34.20;1.00;;;;;;6134849;23;20498;-81
2022/09/30 12:16:51;;;;;;;5.63;4.23;;;34.30;1.00;;;;;;6135637;23;20428;-82
2022/09/30 12:19:25;;;;;;;5.70;4.27;;;34.50;1.00;;;;;;6149203;23;20426;-81
2022/09/30 12:21:59;;;;;;;6.47;4.10;;;35.20;1.00;;;;;;6152345;23;20435;-82
2022/09/30 12:24:31;;;;;;;6.90;4.10;;;33.90;1.00;;;;;;6134572;23;20438;-81
2022/09/30 12:27:00;;;;;;;6.00;4.53;;;32.70;1.00;;;;;;6133731;23;20470;-80
2022/09/30 12:32:46;;;;;;;6.47;4.27;;;29.30;1.00;;;;;;6180754;23;21207;-85
2022/09/30 12:35:43;;;;;;;5.73;4.17;;;30.10;1.00;;;;;;6197264;23;20461;-84
2022/09/30 12:38:24;;;;;;;5.97;4.43;;;32.20;1.00;;;;;;6199575;23;20491;-85
2022/09/30 12:41:02;;;;;;;6.83;3.40;;;33.10;1.00;;;;;;6203954;23;20493;-85
2022/09/30 12:44:02;;;;;;;5.90;3.93;;;32.70;1.00;;;;;;6201062;23;20884;-85
2022/09/30 12:46:53;;;;;;;5.13;3.57;;;29.90;1.00;;;;;;6184128;23;20402;-85
2022/09/30 12:49:26;;;;;;;5.00;4.10;;;27.40;1.00;;;;;;6182634;23;20406;-80
2022/09/30 12:51:57;;;;;;;6.77;4.30;;;25.30;1.00;;;;;;6192360;23;20424;-84
2022/09/30 12:54:32;;;;;;;7.00;4.10;;;23.90;1.00;;;;;;6180005;23;20615;-82
2022/09/30 12:57:07;;;;;;;4.23;3.37;;;23.00;1.00;;;;;;6181563;23;20428;-84
2022/09/30 13:00:05;;;;;;;4.27;3.10;;;22.80;1.00;;;;;;6192599;23;20390;-82
2022/09/30 13:02:58;;;;;;;4.70;3.00;;;22.40;1.00;;;;;;6201341;23;20466;-86
2022/09/30 13:05:56;;;;;;;7.10;3.37;;;21.60;1.00;;;;;;6176098;23;20412;-83
2022/09/30 13:09:06;;;;;;;6.27;3.07;;;21.50;1.00;;;;;;6203698;23;20394;-81
2022/09/30 13:11:43;;;;;;;5.43;3.77;;;21.50;1.00;;;;;;6201537;23;20430;-81
2022/09/30 13:14:26;;;;;;;4.60;2.83;;;21.40;1.00;;;;;;6172657;23;20432;-80
2022/09/30 13:17:27;;;;;;;6.00;3.07;;;21.00;1.00;;;;;;6191683;23;20420;-88
2022/09/30 13:19:58;;;;;;;5.83;3.40;;;20.70;1.00;;;;;;6203631;23;20430;-82
2022/09/30 13:22:58;;;;;;;4.80;3.33;;;20.40;1.00;;;;;;6198920;23;20543;-79
2022/09/30 13:25:26;;;;;;;5.07;3.30;;;20.60;1.00;;;;;;6132675;23;20390;-81
2022/09/30 13:28:36;;;;;;;7.67;5.43;;;20.70;1.00;;;;;;6177951;23;20405;-81